createdAt,value
2022-12-09T00:01:20.485Z,24.37
2022-12-09T00:03:47.690Z,32.07
2022-12-09T00:06:26.653Z,29.50
2022-12-09T00:08:54.712Z,24.13
2022-12-09T00:11:22.508Z,29.00
2022-12-09T00:13:54.785Z,29.63
2022-12-09T00:16:22.577Z,34.47
2022-12-09T00:18:50.069Z,30.47
2022-12-09T00:21:25.485Z,34.20
2022-12-09T00:23:54.122Z,34.13
2022-12-09T00:26:22.376Z,28.90
2022-12-09T00:31:32.620Z,35.80
2022-12-09T00:34:02.489Z,31.93
2022-12-09T00:36:30.114Z,28.60
2022-12-09T00:38:58.580Z,28.97
2022-12-09T00:41:26.207Z,30.10
2022-12-09T00:43:53.062Z,33.50
2022-12-09T00:46:20.372Z,33.43
2022-12-09T00:48:47.646Z,35.57
2022-12-09T00:51:18.113Z,38.20
2022-12-09T00:53:44.967Z,32.60
2022-12-09T00:56:11.933Z,38.30
2022-12-09T00:58:38.790Z,30.83
2022-12-09T01:01:05.929Z,34.23
2022-12-09T01:03:33.321Z,31.33
2022-12-09T01:06:00.701Z,35.00
2022-12-09T01:08:27.558Z,37.97
2022-12-09T01:10:54.630Z,36.03
2022-12-09T01:13:21.638Z,36.27
2022-12-09T01:15:48.529Z,40.57
2022-12-09T01:18:15.365Z,35.90
2022-12-09T01:20:42.174Z,30.13
2022-12-09T01:23:09.195Z,34.13
2022-12-09T01:25:38.162Z,32.67
2022-12-09T01:28:05.112Z,27.90
2022-12-09T01:30:32.123Z,33.40
2022-12-09T01:32:59.020Z,31.57
2022-12-09T01:35:26.136Z,30.10
2022-12-09T01:37:53.141Z,48.50
2022-12-09T01:40:20.236Z,35.20
2022-12-09T01:42:49.505Z,28.93
2022-12-09T01:45:22.376Z,28.63
2022-12-09T01:48:01.935Z,37.00
2022-12-09T01:50:30.577Z,34.67
2022-12-09T01:52:57.901Z,31.60
2022-12-09T01:55:25.256Z,37.17
2022-12-09T01:57:52.967Z,35.30
2022-12-09T02:00:20.905Z,36.87
2022-12-09T02:02:49.655Z,38.97
2022-12-09T02:05:17.265Z,32.80
2022-12-09T02:07:44.351Z,29.40
2022-12-09T02:10:15.254Z,35.07
2022-12-09T02:13:09.070Z,42.23
2022-12-09T02:15:49.100Z,32.40
2022-12-09T02:18:26.482Z,40.37
2022-12-09T02:21:04.559Z,35.70
2022-12-09T02:23:49.104Z,38.57
2022-12-09T02:26:51.776Z,38.37
2022-12-09T02:29:28.478Z,34.40
2022-12-09T02:32:27.362Z,35.73
2022-12-09T02:35:15.519Z,40.97
2022-12-09T02:37:56.132Z,39.80
2022-12-09T02:43:07.207Z,39.30
2022-12-09T02:45:35.529Z,42.60
2022-12-09T02:48:03.898Z,45.57
2022-12-09T02:50:35.010Z,44.87
2022-12-09T02:53:05.920Z,36.47
2022-12-09T02:55:34.320Z,40.23
2022-12-09T02:58:01.766Z,46.30
2022-12-09T03:00:28.920Z,45.73
2022-12-09T03:03:01.525Z,40.00
2022-12-09T03:05:49.534Z,36.33
2022-12-09T03:08:38.062Z,34.63
2022-12-09T03:11:12.050Z,35.03
2022-12-09T03:13:59.547Z,35.70
2022-12-09T03:16:51.491Z,34.80
2022-12-09T03:19:41.017Z,37.37
2022-12-09T03:22:12.277Z,42.00
2022-12-09T03:25:08.729Z,33.00
2022-12-09T03:27:43.052Z,37.37
2022-12-09T03:30:11.574Z,34.40
2022-12-09T03:32:41.364Z,35.30
2022-12-09T03:35:30.503Z,36.57
2022-12-09T03:38:00.121Z,35.13
2022-12-09T03:40:30.082Z,33.83
2022-12-09T03:43:02.367Z,37.30
2022-12-09T03:45:30.168Z,40.53
2022-12-09T03:47:57.556Z,30.83
2022-12-09T03:50:28.767Z,38.50
2022-12-09T03:53:09.643Z,37.73
2022-12-09T03:55:43.916Z,42.63
2022-12-09T03:58:13.765Z,39.27
2022-12-09T04:00:40.931Z,36.30
2022-12-09T04:03:08.708Z,40.63
2022-12-09T04:05:35.714Z,40.70
2022-12-09T04:08:02.588Z,46.67
2022-12-09T04:10:29.706Z,34.40
2022-12-09T04:12:56.473Z,40.37
2022-12-09T04:15:23.672Z,35.73
2022-12-09T04:17:50.660Z,29.17
2022-12-09T04:20:17.579Z,36.03
2022-12-09T04:22:44.517Z,34.43
2022-12-09T04:25:11.676Z,26.57
2022-12-09T04:27:38.394Z,32.90
2022-12-09T04:30:06.674Z,32.90
2022-12-09T04:32:34.027Z,30.23
2022-12-09T04:35:01.578Z,35.37
2022-12-09T04:37:28.384Z,32.60
2022-12-09T04:39:55.391Z,44.73
2022-12-09T04:42:22.701Z,31.03
2022-12-09T04:44:49.675Z,34.10
2022-12-09T04:47:16.934Z,34.07
2022-12-09T04:49:44.093Z,37.80
2022-12-09T04:52:10.817Z,35.63
2022-12-09T04:54:37.904Z,39.27
2022-12-09T04:57:04.929Z,35.90
2022-12-09T04:59:32.400Z,35.77
2022-12-09T05:01:59.434Z,36.77
2022-12-09T05:04:26.507Z,31.50
2022-12-09T05:06:53.572Z,29.87
2022-12-09T05:09:20.453Z,43.77
2022-12-09T05:11:47.975Z,33.73
2022-12-09T05:14:15.334Z,38.30
2022-12-09T05:16:42.138Z,37.97
2022-12-09T05:19:09.834Z,41.63
2022-12-09T05:21:37.469Z,38.40
2022-12-09T05:24:05.007Z,45.03
2022-12-09T05:26:32.243Z,38.30
2022-12-09T05:31:30.705Z,41.90
2022-12-09T05:33:59.190Z,39.53
2022-12-09T05:36:29.260Z,40.77
2022-12-09T05:38:56.592Z,39.07
2022-12-09T05:41:24.525Z,40.80
2022-12-09T05:43:52.111Z,43.37
2022-12-09T05:46:19.854Z,41.13
2022-12-09T05:48:46.998Z,44.40
2022-12-09T05:51:26.403Z,37.43
2022-12-09T05:53:54.191Z,46.53
2022-12-09T05:56:22.640Z,34.70
2022-12-09T05:58:50.933Z,36.93
2022-12-09T06:01:19.231Z,37.30
2022-12-09T06:03:51.035Z,38.20
2022-12-09T06:06:21.669Z,39.00
2022-12-09T06:08:49.614Z,36.00
2022-12-09T06:11:19.767Z,42.20
2022-12-09T06:13:47.808Z,36.03
2022-12-09T06:16:19.037Z,45.00
2022-12-09T06:18:47.604Z,38.87
2022-12-09T06:21:18.342Z,40.10
2022-12-09T06:23:45.633Z,38.47
2022-12-09T06:26:21.719Z,38.23
2022-12-09T06:31:20.643Z,36.10
2022-12-09T06:33:57.682Z,36.30
2022-12-09T06:36:28.038Z,38.67
2022-12-09T06:38:56.709Z,32.13
2022-12-09T06:41:24.029Z,37.57
2022-12-09T06:43:51.460Z,35.70
2022-12-09T06:46:23.756Z,33.60
2022-12-09T06:48:51.961Z,37.03
2022-12-09T06:51:19.834Z,32.67
2022-12-09T06:53:48.166Z,30.80
2022-12-09T06:56:15.974Z,31.83
2022-12-09T06:58:44.594Z,31.33
2022-12-09T07:01:19.157Z,31.63
2022-12-09T07:03:49.287Z,34.93
2022-12-09T07:06:31.958Z,31.53
2022-12-09T07:09:03.013Z,34.20
2022-12-09T07:11:30.437Z,36.10
2022-12-09T07:13:58.211Z,29.90
2022-12-09T07:16:25.245Z,33.23
2022-12-09T07:18:52.773Z,32.43
2022-12-09T07:21:21.418Z,31.70
2022-12-09T07:23:48.651Z,30.83
2022-12-09T07:26:16.687Z,34.30
2022-12-09T07:28:45.494Z,32.50
2022-12-09T07:31:27.026Z,38.30
2022-12-09T07:33:56.435Z,39.53
2022-12-09T07:36:25.811Z,37.23
2022-12-09T07:39:12.663Z,40.53
2022-12-09T07:41:39.513Z,35.30
2022-12-09T07:44:07.413Z,29.40
2022-12-09T07:46:34.810Z,38.27
2022-12-09T07:49:04.577Z,34.80
2022-12-09T07:51:32.617Z,38.00
2022-12-09T07:53:59.560Z,34.10
2022-12-09T07:56:28.395Z,32.67
2022-12-09T07:58:55.468Z,39.20
2022-12-09T08:01:25.326Z,35.60
2022-12-09T08:03:53.407Z,31.57
2022-12-09T08:06:23.088Z,38.27
2022-12-09T08:08:51.104Z,37.77
2022-12-09T08:11:20.628Z,38.17
2022-12-09T08:13:48.234Z,47.87
2022-12-09T08:16:17.647Z,39.60
2022-12-09T08:18:44.918Z,37.00
2022-12-09T08:21:17.531Z,32.90
2022-12-09T08:23:44.946Z,37.87
2022-12-09T08:26:13.716Z,38.50
2022-12-09T08:28:41.115Z,38.20
2022-12-09T08:31:10.832Z,38.10
2022-12-09T08:33:39.113Z,37.13
2022-12-09T08:36:11.635Z,35.70
2022-12-09T08:38:38.824Z,35.37
2022-12-09T08:41:14.202Z,40.83
2022-12-09T08:43:42.089Z,35.43
2022-12-09T08:46:09.691Z,32.67
2022-12-09T08:48:38.228Z,38.57
2022-12-09T08:51:06.527Z,33.23
2022-12-09T08:53:33.624Z,35.33
2022-12-09T08:56:07.023Z,33.60
2022-12-09T08:58:34.232Z,27.60
2022-12-09T09:01:01.538Z,28.67
2022-12-09T09:03:28.813Z,32.50
2022-12-09T09:06:09.588Z,38.70
2022-12-09T09:08:39.305Z,32.07
2022-12-09T09:11:14.462Z,30.50
2022-12-09T09:13:42.930Z,38.17
2022-12-09T09:16:16.226Z,36.97
2022-12-09T09:18:43.803Z,38.63
2022-12-09T09:21:13.317Z,29.03
2022-12-09T09:23:41.417Z,27.93
2022-12-09T09:26:13.887Z,29.93
2022-12-09T09:28:41.193Z,31.57
2022-12-09T09:31:10.901Z,21.00
2022-12-09T09:33:38.121Z,23.47
2022-12-09T09:36:10.370Z,27.00
2022-12-09T09:38:37.766Z,23.00
2022-12-09T09:41:18.772Z,23.40
2022-12-09T09:43:45.976Z,26.77
2022-12-09T09:46:20.856Z,20.03
2022-12-09T09:48:48.791Z,19.30
2022-12-09T09:51:18.644Z,23.33
2022-12-09T09:53:49.841Z,22.50
2022-12-09T09:56:36.794Z,23.53
2022-12-09T09:59:33.449Z,26.83
2022-12-09T10:02:11.744Z,18.60
2022-12-09T10:05:13.315Z,18.20
2022-12-09T10:07:48.701Z,19.20
2022-12-09T10:10:44.461Z,21.00
2022-12-09T10:13:23.963Z,22.10
2022-12-09T10:16:14.273Z,20.37
2022-12-09T10:19:07.328Z,18.67
2022-12-09T10:21:41.075Z,22.43
2022-12-09T10:24:27.720Z,20.20
2022-12-09T10:27:06.185Z,12.33
2022-12-09T10:29:55.826Z,21.30
2022-12-09T10:32:27.644Z,17.40
2022-12-09T10:34:55.186Z,19.63
2022-12-09T10:37:31.458Z,10.87
2022-12-09T10:40:10.944Z,11.20
2022-12-09T10:43:16.217Z,12.57
2022-12-09T10:48:46.349Z,12.73
2022-12-09T10:51:29.010Z,14.70
2022-12-09T10:54:17.791Z,13.13
2022-12-09T10:57:07.276Z,10.10
2022-12-09T10:59:36.026Z,10.37
2022-12-09T11:02:09.157Z,13.40
2022-12-09T11:04:39.976Z,19.60
2022-12-09T11:07:07.762Z,15.50
2022-12-09T11:09:37.626Z,10.17
2022-12-09T11:12:07.603Z,16.07
2022-12-09T11:14:49.790Z,16.30
2022-12-09T11:17:25.984Z,16.40
2022-12-09T11:20:14.161Z,17.17
2022-12-09T11:22:43.652Z,18.93
2022-12-09T11:25:24.741Z,15.23
2022-12-09T11:28:13.787Z,14.63
2022-12-09T11:33:53.626Z,15.50
2022-12-09T11:36:22.393Z,21.30
2022-12-09T11:38:52.251Z,12.43
2022-12-09T11:41:40.620Z,16.00
2022-12-09T11:44:32.493Z,20.63
2022-12-09T11:47:09.489Z,20.60
2022-12-09T11:49:59.186Z,18.83
2022-12-09T11:52:29.509Z,18.77
2022-12-09T11:55:24.526Z,14.93
2022-12-09T11:58:11.866Z,15.33
2022-12-09T12:00:55.243Z,11.10
2022-12-09T12:03:37.877Z,18.13
2022-12-09T12:06:13.063Z,12.80
2022-12-09T12:08:53.246Z,13.07
2022-12-09T12:11:28.744Z,17.23
2022-12-09T12:14:06.416Z,14.83
2022-12-09T12:17:00.925Z,11.00
2022-12-09T12:19:35.439Z,7.73
2022-12-09T12:22:26.961Z,6.70
2022-12-09T12:25:30.803Z,12.87
2022-12-09T12:28:21.229Z,6.67
2022-12-09T12:30:53.715Z,5.97
2022-12-09T12:34:07.811Z,9.53
2022-12-09T12:36:40.784Z,7.60
2022-12-09T12:39:45.943Z,10.00
2022-12-09T12:42:39.373Z,8.23
2022-12-09T12:45:36.982Z,6.20
2022-12-09T12:48:14.637Z,11.73
2022-12-09T12:51:09.973Z,11.47
2022-12-09T12:53:44.908Z,13.33
2022-12-09T12:56:35.648Z,8.17
2022-12-09T12:59:31.546Z,9.87
2022-12-09T13:02:13.447Z,8.60
2022-12-09T13:04:52.594Z,6.50
2022-12-09T13:07:30.805Z,9.17
2022-12-09T13:10:15.672Z,6.00
2022-12-09T13:12:54.397Z,10.97
2022-12-09T13:15:27.423Z,7.97
2022-12-09T13:17:54.976Z,15.73
2022-12-09T13:20:30.094Z,7.70
2022-12-09T13:23:06.805Z,9.43
2022-12-09T13:26:03.911Z,14.60
2022-12-09T13:31:31.117Z,6.47
2022-12-09T13:34:38.952Z,11.23
2022-12-09T13:37:25.792Z,5.60
2022-12-09T13:39:55.916Z,5.93
2022-12-09T13:42:46.294Z,6.70
2022-12-09T13:45:28.037Z,7.50
2022-12-09T13:47:56.997Z,5.67
2022-12-09T13:50:42.532Z,8.20
2022-12-09T13:53:21.545Z,11.93
2022-12-09T13:55:56.461Z,8.80
2022-12-09T13:58:53.771Z,6.87
2022-12-09T14:01:29.289Z,5.37
2022-12-09T14:04:06.065Z,14.63
2022-12-09T14:06:45.091Z,8.20
2022-12-09T14:09:30.872Z,5.53
2022-12-09T14:12:00.657Z,6.90
2022-12-09T14:14:27.423Z,10.83
2022-12-09T14:17:02.914Z,5.47
2022-12-09T14:19:48.149Z,6.03
2022-12-09T14:22:18.658Z,5.13
2022-12-09T14:24:52.980Z,10.20
2022-12-09T14:27:22.017Z,7.97
2022-12-09T14:29:50.309Z,8.50
2022-12-09T14:32:57.139Z,5.90
2022-12-09T14:35:56.047Z,10.33
2022-12-09T14:38:28.859Z,13.30
2022-12-09T14:41:25.826Z,12.90
2022-12-09T14:44:03.220Z,11.20
2022-12-09T14:46:38.623Z,14.93
2022-12-09T14:49:25.788Z,10.93
2022-12-09T14:52:01.539Z,11.47
2022-12-09T14:54:31.893Z,11.30
2022-12-09T14:57:01.100Z,16.93
2022-12-09T14:59:30.792Z,12.27
2022-12-09T15:02:03.399Z,19.27
2022-12-09T15:04:31.399Z,10.73
2022-12-09T15:07:18.651Z,11.87
2022-12-09T15:09:54.257Z,9.20
2022-12-09T15:12:30.359Z,13.70
2022-12-09T15:15:19.591Z,19.90
2022-12-09T15:17:52.266Z,7.80
2022-12-09T15:20:21.236Z,12.97
2022-12-09T15:22:53.374Z,16.60
2022-12-09T15:25:21.904Z,31.97
2022-12-09T15:28:16.533Z,31.80
2022-12-09T15:30:44.538Z,20.30
2022-12-09T15:33:22.119Z,11.70
2022-12-09T15:36:02.058Z,13.73
2022-12-09T15:38:39.033Z,15.03
2022-12-09T15:41:27.800Z,13.17
2022-12-09T15:43:57.576Z,12.80
2022-12-09T15:46:26.476Z,15.80
2022-12-09T15:48:57.052Z,15.03
2022-12-09T15:51:26.425Z,20.50
2022-12-09T15:54:09.640Z,9.93
2022-12-09T15:56:44.506Z,11.20
2022-12-09T15:59:19.733Z,14.40
2022-12-09T16:01:52.622Z,9.60
2022-12-09T16:04:22.259Z,11.10
2022-12-09T16:06:50.341Z,9.30
2022-12-09T16:09:20.499Z,7.93
2022-12-09T16:11:55.711Z,8.93
2022-12-09T16:14:23.812Z,11.53
2022-12-09T16:16:54.975Z,8.87
2022-12-09T16:19:46.394Z,8.70
2022-12-09T16:22:29.397Z,7.00
2022-12-09T16:25:15.403Z,8.03
2022-12-09T16:27:48.866Z,10.87
2022-12-09T16:30:19.144Z,17.57
2022-12-09T16:33:02.758Z,22.10
2022-12-09T16:35:37.874Z,20.87
2022-12-09T16:38:10.701Z,12.47
2022-12-09T16:40:46.068Z,18.80
2022-12-09T16:43:15.808Z,12.33
2022-12-09T16:45:48.290Z,14.20
2022-12-09T16:48:17.208Z,13.93
2022-12-09T16:50:57.477Z,16.77
2022-12-09T16:53:35.182Z,15.07
2022-12-09T16:56:03.313Z,20.33
2022-12-09T16:58:32.907Z,21.53
2022-12-09T17:09:05.376Z,16.70
2022-12-09T17:11:32.100Z,16.67
2022-12-09T17:13:58.870Z,16.50
2022-12-09T17:16:26.863Z,20.40
2022-12-09T17:18:53.773Z,14.33
2022-12-09T17:21:20.580Z,14.43
2022-12-09T17:23:47.473Z,12.33
2022-12-09T17:26:17.846Z,16.27
2022-12-09T17:28:45.217Z,21.73
2022-12-09T17:31:18.060Z,15.87
2022-12-09T17:33:44.940Z,19.83
2022-12-09T17:36:13.036Z,29.27
2022-12-09T17:38:39.908Z,22.53
2022-12-09T17:41:08.889Z,24.23
2022-12-09T17:43:36.031Z,23.90
2022-12-09T17:46:04.684Z,20.87
2022-12-09T17:48:32.803Z,24.13
2022-12-09T17:51:04.608Z,25.27
2022-12-09T17:53:31.276Z,21.70
2022-12-09T17:55:57.953Z,30.50
2022-12-09T17:58:24.659Z,21.80
2022-12-09T18:00:51.392Z,21.03
2022-12-09T18:03:39.328Z,28.50
2022-12-09T18:06:05.027Z,33.53
2022-12-09T18:08:31.746Z,38.30
2022-12-09T18:11:03.387Z,30.97
2022-12-09T18:13:30.452Z,34.90
2022-12-09T18:15:57.219Z,38.30
2022-12-09T18:18:24.046Z,40.43
2022-12-09T18:20:50.792Z,29.00
2022-12-09T18:23:17.484Z,29.17
2022-12-09T18:25:44.215Z,35.93
2022-12-09T18:28:10.936Z,34.10
2022-12-09T18:30:39.643Z,40.30
2022-12-09T18:33:06.478Z,44.83
2022-12-09T18:35:33.760Z,44.83
2022-12-09T18:38:09.556Z,39.50
2022-12-09T18:41:00.484Z,39.73
2022-12-09T18:43:48.364Z,38.63
2022-12-09T18:46:36.620Z,36.80
2022-12-09T18:49:12.799Z,40.53
2022-12-09T18:51:40.930Z,30.10
2022-12-09T18:54:08.420Z,25.00
2022-12-09T18:56:36.103Z,34.47
2022-12-09T18:59:07.941Z,34.13
2022-12-09T19:01:39.674Z,32.83
2022-12-09T19:04:10.236Z,31.43
2022-12-09T19:06:39.050Z,33.03
2022-12-09T19:09:11.612Z,33.53
2022-12-09T19:11:40.111Z,32.80
2022-12-09T19:14:08.344Z,30.93
2022-12-09T19:16:35.701Z,28.23
2022-12-09T19:19:09.188Z,32.30
2022-12-09T19:21:37.136Z,34.83
2022-12-09T19:24:03.990Z,32.70
2022-12-09T19:26:33.210Z,29.37
2022-12-09T19:29:06.696Z,31.87
2022-12-09T19:31:39.403Z,30.50
2022-12-09T19:34:10.654Z,34.30
2022-12-09T19:36:37.348Z,25.10
2022-12-09T19:39:06.419Z,26.30
2022-12-09T19:41:33.071Z,34.83
2022-12-09T19:44:01.232Z,31.87
2022-12-09T19:46:28.530Z,33.63
2022-12-09T19:48:55.997Z,32.70
2022-12-09T19:51:24.111Z,35.23
2022-12-09T19:53:54.082Z,39.67
2022-12-09T19:56:21.328Z,33.20
2022-12-09T19:58:48.283Z,38.00
2022-12-09T20:01:30.410Z,40.60
2022-12-09T20:04:25.487Z,35.03
2022-12-09T20:06:53.900Z,39.77
2022-12-09T20:09:24.408Z,33.30
2022-12-09T20:11:52.968Z,30.40
2022-12-09T20:14:20.369Z,35.07
2022-12-09T20:16:47.091Z,33.03
2022-12-09T20:19:13.846Z,41.37
2022-12-09T20:21:40.781Z,34.70
2022-12-09T20:24:08.963Z,38.20
2022-12-09T20:26:37.453Z,32.33
2022-12-09T20:29:07.099Z,33.33
2022-12-09T20:31:35.533Z,29.50
2022-12-09T20:34:08.799Z,33.40
2022-12-09T20:36:37.896Z,28.73
2022-12-09T20:39:11.251Z,34.43
2022-12-09T20:41:38.858Z,36.43
2022-12-09T20:44:05.671Z,38.40
2022-12-09T20:46:33.567Z,37.83
2022-12-09T20:49:00.648Z,41.43
2022-12-09T20:51:36.914Z,41.13
2022-12-09T20:54:05.342Z,41.57
2022-12-09T20:56:33.317Z,35.40
2022-12-09T20:59:00.890Z,36.47
2022-12-09T21:01:30.190Z,37.27
2022-12-09T21:03:58.479Z,41.63
2022-12-09T21:06:30.216Z,43.73
2022-12-09T21:09:10.293Z,50.00
2022-12-09T21:11:37.688Z,39.20
2022-12-09T21:14:06.812Z,40.53
2022-12-09T21:16:37.456Z,40.50
2022-12-09T21:19:07.234Z,41.90
2022-12-09T21:21:37.237Z,40.37
2022-12-09T21:24:04.644Z,41.37
2022-12-09T21:26:31.440Z,38.47
2022-12-09T21:29:00.086Z,40.53
2022-12-09T21:31:32.662Z,36.07
2022-12-09T21:34:02.957Z,36.80
2022-12-09T21:36:32.039Z,34.90
2022-12-09T21:38:58.843Z,40.70
2022-12-09T21:41:28.809Z,35.50
2022-12-09T21:43:56.268Z,42.23
2022-12-09T21:46:25.223Z,48.87
2022-12-09T21:48:55.067Z,38.47
2022-12-09T21:51:26.389Z,42.47
2022-12-09T21:53:54.019Z,43.43
2022-12-09T21:56:26.504Z,44.50
2022-12-09T21:58:56.012Z,50.90
2022-12-09T22:01:28.446Z,48.63
2022-12-09T22:03:56.675Z,54.47
2022-12-09T22:06:23.419Z,41.50
2022-12-09T22:08:50.731Z,44.77
2022-12-09T22:11:20.829Z,43.60
2022-12-09T22:13:47.865Z,46.80
2022-12-09T22:16:23.384Z,51.07
2022-12-09T22:18:52.282Z,50.37
2022-12-09T22:21:25.632Z,49.73
2022-12-09T22:23:59.120Z,48.27
2022-12-09T22:26:26.778Z,44.47
2022-12-09T22:28:53.993Z,49.90
2022-12-09T22:31:29.846Z,42.63
2022-12-09T22:34:14.179Z,46.00
2022-12-09T22:36:41.306Z,50.73
2022-12-09T22:39:21.532Z,54.63
2022-12-09T22:41:48.657Z,61.67
2022-12-09T22:44:17.475Z,54.90
2022-12-09T22:46:44.960Z,48.57
2022-12-09T22:49:13.988Z,51.47
2022-12-09T22:51:41.622Z,64.43
2022-12-09T22:54:09.156Z,58.53
2022-12-09T22:56:38.759Z,51.07
2022-12-09T22:59:05.875Z,53.23
2022-12-09T23:01:35.631Z,42.93
2022-12-09T23:04:05.601Z,43.20
2022-12-09T23:06:35.773Z,37.23
2022-12-09T23:09:02.473Z,46.10
2022-12-09T23:11:29.300Z,45.73
2022-12-09T23:13:56.050Z,47.13
2022-12-09T23:16:24.744Z,58.93
2022-12-09T23:18:52.438Z,48.73
2022-12-09T23:21:21.825Z,60.67
2022-12-09T23:23:48.573Z,52.87
2022-12-09T23:26:17.717Z,58.13
2022-12-09T23:28:46.799Z,55.90
2022-12-09T23:31:15.355Z,53.23
2022-12-09T23:33:43.450Z,58.33
2022-12-09T23:36:14.046Z,52.67
2022-12-09T23:38:41.557Z,54.00
2022-12-09T23:41:09.575Z,52.47
2022-12-09T23:43:37.763Z,46.77
2022-12-09T23:46:15.339Z,62.40
2022-12-09T23:48:44.036Z,59.17
2022-12-09T23:51:13.012Z,62.67
2022-12-09T23:53:40.966Z,49.10
2022-12-09T23:56:10.956Z,54.30
2022-12-09T23:58:37.670Z,46.57
